OAKB/KBL METAR and TAF weather

Enter ICAO airport designator
Station Type Date Time Source
OAKB METAR 2019/04/25 17:50 UTC NOAA

OAKB 251750Z 15007KT 9999 SCT047 16/04 Q1018 NOSIG RMK A3009 BLU BLU


Station Type Date Time Source
OAKB Decoded METAR 2019/04/25 17:50 UTC NOAA

Kabul Airport, Afghanistan (OAKB) 34-38N 069-12E
Apr 25, 2019 - 01:50 PM EDT / 2019.04.25 1750 UTC
Wind: from the SSE (150 degrees) at 8 MPH (7 KT):0
Visibility: greater than 7 mile(s):0
Sky conditions: partly cloudy
Temperature: 60 F (16 C)
Dew Point: 39 F (4 C)
Relative Humidity: 44%
Pressure (altimeter): 30.06 in. Hg (1018 hPa)
ob: OAKB 251750Z 15007KT 9999 SCT047 16/04 Q1018 NOSIG RMK A3009 BLU BLU
cycle: 18

Station Type Date Time Source
OAKB TAF 2019/04/25 18:05 UTC NOAA

TAF OAKB 251705Z 2518/2618 12012KT 9999 BKN050
BECMG 2518/2520 VRB02KT FEW100
TEMPO 2601/2604 4000 HZ
TEMPO 2610/2614 02012G22KT BKN100

Example: see airport list